createdAt,value
2022-09-09T00:04:25.617Z,99.90
2022-09-09T00:09:27.179Z,99.90
2022-09-09T00:14:37.508Z,99.90
2022-09-09T00:19:44.612Z,99.90
2022-09-09T00:24:47.025Z,99.90
2022-09-09T00:29:53.996Z,99.90
2022-09-09T00:34:56.070Z,99.90
2022-09-09T00:39:59.298Z,99.90
2022-09-09T00:45:13.118Z,99.90
2022-09-09T00:50:26.891Z,99.90
2022-09-09T00:55:35.766Z,99.90
2022-09-09T01:00:43.168Z,99.90
2022-09-09T01:05:47.818Z,99.90
2022-09-09T01:10:51.898Z,99.90
2022-09-09T01:15:58.530Z,99.90
2022-09-09T01:21:10.732Z,99.90
2022-09-09T01:26:23.995Z,99.90
2022-09-09T01:31:28.406Z,99.90
2022-09-09T01:36:34.537Z,99.90
2022-09-09T01:41:34.231Z,99.90
2022-09-09T01:46:38.371Z,99.90
2022-09-09T01:51:43.516Z,99.90
2022-09-09T01:56:57.401Z,99.90
2022-09-09T02:02:10.575Z,99.90
2022-09-09T02:07:24.732Z,99.90
2022-09-09T02:12:27.376Z,99.90
2022-09-09T02:17:32.321Z,99.90
2022-09-09T02:22:40.469Z,99.90
2022-09-09T02:27:42.435Z,99.90
2022-09-09T02:32:44.131Z,99.90
2022-09-09T02:37:47.035Z,99.90
2022-09-09T02:42:49.413Z,99.90
2022-09-09T02:47:57.926Z,99.90
2022-09-09T02:53:11.070Z,99.90
2022-09-09T02:58:17.802Z,99.90
2022-09-09T03:03:22.193Z,99.90
2022-09-09T03:08:22.740Z,99.90
2022-09-09T03:13:22.278Z,99.90
2022-09-09T03:18:21.784Z,99.90
2022-09-09T03:23:23.904Z,99.90
2022-09-09T03:28:24.332Z,99.90
2022-09-09T03:33:22.598Z,99.90
2022-09-09T03:38:20.688Z,99.90
2022-09-09T03:43:18.747Z,99.90
2022-09-09T03:48:19.561Z,99.90
2022-09-09T03:53:20.188Z,99.90
2022-09-09T03:58:19.616Z,99.90
2022-09-09T04:03:19.819Z,99.90
2022-09-09T04:08:17.929Z,99.90
2022-09-09T04:13:18.746Z,99.90
2022-09-09T04:18:19.915Z,99.90
2022-09-09T04:23:22.767Z,99.90
2022-09-09T04:28:22.966Z,99.90
2022-09-09T04:33:22.121Z,99.90
2022-09-09T04:38:25.002Z,99.90
2022-09-09T04:43:23.834Z,99.90
2022-09-09T04:48:23.275Z,99.90
2022-09-09T04:53:21.872Z,99.90
2022-09-09T04:58:22.778Z,99.90
2022-09-09T05:03:21.600Z,99.90
2022-09-09T05:08:19.613Z,99.90
2022-09-09T05:13:17.731Z,99.90
2022-09-09T05:18:17.707Z,99.90
2022-09-09T05:23:15.819Z,99.90
2022-09-09T05:28:14.383Z,99.90
2022-09-09T05:33:12.589Z,99.90
2022-09-09T05:38:12.134Z,99.90
2022-09-09T05:43:10.212Z,99.90
2022-09-09T05:48:08.799Z,99.90
2022-09-09T05:53:06.782Z,99.90
2022-09-09T05:58:06.285Z,99.90
2022-09-09T06:03:04.560Z,99.90
2022-09-09T06:08:02.970Z,99.90
2022-09-09T06:13:02.401Z,99.90
2022-09-09T06:18:01.928Z,99.90
2022-09-09T06:23:00.064Z,99.90
2022-09-09T06:27:58.662Z,99.90
2022-09-09T06:32:59.001Z,99.90
2022-09-09T06:37:59.559Z,99.90
2022-09-09T06:43:01.912Z,99.90
2022-09-09T06:48:11.263Z,99.90
2022-09-09T06:53:10.965Z,99.90
2022-09-09T06:58:10.832Z,99.90
2022-09-09T07:03:09.433Z,99.90
2022-09-09T07:08:08.382Z,99.90
2022-09-09T07:13:08.577Z,99.90
2022-09-09T07:18:06.762Z,99.90
2022-09-09T07:23:05.402Z,99.90
2022-09-09T07:28:04.300Z,99.90
2022-09-09T07:33:04.270Z,99.90
2022-09-09T07:38:03.108Z,99.90
2022-09-09T07:43:01.431Z,99.90
2022-09-09T07:47:59.797Z,99.90
2022-09-09T07:53:00.598Z,99.90
2022-09-09T07:57:58.737Z,99.90
2022-09-09T08:02:56.850Z,99.90
2022-09-09T08:07:54.929Z,99.90
2022-09-09T08:13:14.777Z,99.90
2022-09-09T08:18:12.429Z,99.90
2022-09-09T08:23:10.567Z,99.90
2022-09-09T08:28:11.107Z,99.90
2022-09-09T08:33:11.476Z,99.90
2022-09-09T08:38:11.036Z,99.90
2022-09-09T08:43:12.006Z,99.90
2022-09-09T08:48:31.900Z,99.90
2022-09-09T08:53:32.353Z,99.90
2022-09-09T08:58:35.789Z,99.90
2022-09-09T09:03:46.866Z,99.90
2022-09-09T09:08:54.006Z,99.90
2022-09-09T09:13:59.467Z,99.90
2022-09-09T09:18:58.493Z,99.90
2022-09-09T09:23:59.658Z,99.90
2022-09-09T09:29:04.009Z,99.90
2022-09-09T09:34:03.401Z,99.90
2022-09-09T09:44:30.259Z,99.90
2022-09-09T09:49:35.789Z,99.90
2022-09-09T09:54:39.124Z,97.30
2022-09-09T09:59:41.239Z,96.20
2022-09-09T10:04:49.437Z,94.20
2022-09-09T10:09:54.136Z,96.60
2022-09-09T10:15:02.581Z,98.50
2022-09-09T10:20:24.964Z,97.50
2022-09-09T10:25:33.404Z,97.60
2022-09-09T10:30:41.261Z,97.00
2022-09-09T10:35:47.684Z,99.80
2022-09-09T10:41:07.664Z,99.90
2022-09-09T10:46:16.979Z,98.30
2022-09-09T10:51:25.048Z,99.90
2022-09-09T10:56:26.441Z,99.90
2022-09-09T11:01:30.384Z,98.70
2022-09-09T11:06:34.622Z,99.40
2022-09-09T11:11:38.961Z,99.70
2022-09-09T11:16:43.335Z,98.50
2022-09-09T11:21:47.455Z,97.90
2022-09-09T11:26:51.252Z,99.90
2022-09-09T11:32:02.336Z,99.90
2022-09-09T11:37:39.902Z,99.90
2022-09-09T11:42:38.424Z,99.60
2022-09-09T11:47:37.991Z,99.90
2022-09-09T11:52:39.914Z,99.90
2022-09-09T11:57:38.903Z,98.50
2022-09-09T12:02:38.276Z,99.30
2022-09-09T12:07:40.463Z,99.80
2022-09-09T12:12:43.755Z,96.40
2022-09-09T12:17:46.451Z,95.50
2022-09-09T12:23:08.292Z,97.10
2022-09-09T12:28:11.504Z,96.50
2022-09-09T12:33:14.922Z,94.70
2022-09-09T12:38:20.307Z,96.50
2022-09-09T12:43:22.160Z,96.50
2022-09-09T12:48:22.416Z,97.30
2022-09-09T12:53:27.389Z,97.70
2022-09-09T12:58:26.202Z,98.80
2022-09-09T13:03:26.867Z,99.10
2022-09-09T13:08:26.084Z,99.30
2022-09-09T13:13:28.241Z,99.90
2022-09-09T13:18:30.565Z,99.90
2022-09-09T13:23:30.493Z,99.90
2022-09-09T13:28:33.664Z,99.90
2022-09-09T13:33:38.263Z,99.90
2022-09-09T13:38:40.196Z,99.90
2022-09-09T13:43:40.755Z,99.90
2022-09-09T13:48:42.036Z,99.90
2022-09-09T13:53:40.099Z,99.90
2022-09-09T13:58:38.056Z,99.90
2022-09-09T14:03:36.028Z,99.90
2022-09-09T14:08:38.461Z,99.90
2022-09-09T14:13:44.125Z,99.90
2022-09-09T14:18:42.076Z,97.60
2022-09-09T14:23:41.377Z,95.10
2022-09-09T14:28:56.715Z,95.50
2022-09-09T14:33:54.784Z,96.60
2022-09-09T14:38:54.328Z,98.20
2022-09-09T14:43:53.181Z,99.40
2022-09-09T14:48:51.193Z,99.90
2022-09-09T14:53:49.943Z,99.90
2022-09-09T14:58:49.397Z,99.90
2022-09-09T15:03:51.992Z,99.90
2022-09-09T15:08:52.137Z,99.90
2022-09-09T15:13:54.268Z,99.90
2022-09-09T15:18:55.131Z,99.90
2022-09-09T15:23:53.484Z,99.90
2022-09-09T15:28:52.786Z,98.60
2022-09-09T15:33:51.490Z,99.20
2022-09-09T15:38:49.821Z,99.50
2022-09-09T15:43:49.729Z,99.50
2022-09-09T15:48:52.307Z,99.70
2022-09-09T15:53:56.455Z,99.10
2022-09-09T15:58:55.018Z,97.90
2022-09-09T16:03:54.822Z,98.50
2022-09-09T16:08:55.151Z,96.90
2022-09-09T16:13:54.478Z,96.50
2022-09-09T16:18:55.789Z,96.60
2022-09-09T16:23:55.197Z,97.30
2022-09-09T16:28:55.139Z,94.70
2022-09-09T16:33:55.038Z,95.90
2022-09-09T16:38:55.312Z,96.20
2022-09-09T16:43:55.115Z,97.30
2022-09-09T16:48:55.728Z,98.70
2022-09-09T16:53:54.443Z,99.90
2022-09-09T16:58:55.044Z,99.90
2022-09-09T17:04:00.186Z,99.90
2022-09-09T17:09:00.643Z,99.90
2022-09-09T17:14:00.041Z,99.90
2022-09-09T17:19:00.655Z,99.90
2022-09-09T17:23:59.571Z,99.90
2022-09-09T17:28:59.997Z,99.90
2022-09-09T17:34:00.316Z,99.90
2022-09-09T17:38:58.569Z,99.90
2022-09-09T17:43:58.162Z,99.90
2022-09-09T17:49:00.309Z,99.90
2022-09-09T17:54:02.200Z,99.90
2022-09-09T17:59:01.547Z,99.90
2022-09-09T18:04:02.439Z,99.90
2022-09-09T18:09:02.417Z,99.90
2022-09-09T18:14:02.483Z,99.90
2022-09-09T18:19:03.523Z,99.90
2022-09-09T18:24:02.609Z,99.90
2022-09-09T18:29:03.219Z,99.90
2022-09-09T18:34:04.548Z,99.90
2022-09-09T18:39:04.586Z,99.90
2022-09-09T18:44:05.575Z,99.90
2022-09-09T18:49:05.099Z,99.90
2022-09-09T18:54:05.354Z,99.90
2022-09-09T18:59:05.253Z,99.90
2022-09-09T19:04:06.927Z,99.90
2022-09-09T19:09:05.526Z,99.90
2022-09-09T19:14:06.074Z,99.90
2022-09-09T19:19:07.920Z,99.90
2022-09-09T19:24:12.336Z,99.90
2022-09-09T19:29:14.370Z,99.90
2022-09-09T19:34:14.475Z,99.90
2022-09-09T19:39:12.511Z,99.90
2022-09-09T19:44:14.313Z,99.90
2022-09-09T19:49:15.287Z,99.90
2022-09-09T19:54:15.887Z,99.90
2022-09-09T19:59:15.650Z,99.90
2022-09-09T20:04:17.103Z,99.90
2022-09-09T20:09:16.935Z,99.90
2022-09-09T20:14:18.813Z,99.90
2022-09-09T20:19:18.221Z,99.90
2022-09-09T20:24:18.009Z,99.90
2022-09-09T20:29:18.417Z,99.90
2022-09-09T20:34:19.592Z,99.90
2022-09-09T20:39:19.883Z,99.90
2022-09-09T20:44:20.016Z,99.90
2022-09-09T20:49:21.876Z,99.90
2022-09-09T20:54:23.186Z,99.90
2022-09-09T20:59:22.948Z,99.90
2022-09-09T21:04:22.953Z,99.90
2022-09-09T21:09:22.705Z,99.90
2022-09-09T21:14:20.714Z,99.90
2022-09-09T21:19:18.641Z,99.90
2022-09-09T21:24:18.183Z,99.90
2022-09-09T21:29:16.365Z,99.90
2022-09-09T21:34:15.370Z,99.90
2022-09-09T21:39:13.699Z,99.90
2022-09-09T21:44:14.392Z,99.90
2022-09-09T21:49:12.400Z,99.90
2022-09-09T21:54:10.351Z,99.90
2022-09-09T21:59:08.576Z,99.90
2022-09-09T22:04:08.034Z,99.90
2022-09-09T22:09:06.088Z,99.90
2022-09-09T22:14:04.100Z,99.90
2022-09-09T22:19:02.437Z,99.90
2022-09-09T22:24:04.327Z,99.90
2022-09-09T22:29:04.930Z,99.90
2022-09-09T22:34:03.025Z,99.90
2022-09-09T22:39:02.295Z,99.90
2022-09-09T22:44:00.373Z,99.90
2022-09-09T22:48:59.203Z,99.90
2022-09-09T22:53:57.769Z,99.90
2022-09-09T22:58:58.183Z,99.90
2022-09-09T23:03:59.155Z,99.90
2022-09-09T23:09:00.152Z,99.90
2022-09-09T23:14:01.614Z,99.90
2022-09-09T23:19:00.856Z,99.90
2022-09-09T23:24:00.341Z,99.90
2022-09-09T23:29:00.850Z,99.90
2022-09-09T23:34:01.093Z,99.90
2022-09-09T23:39:00.308Z,99.90
2022-09-09T23:43:59.570Z,99.90
2022-09-09T23:48:58.297Z,99.90
2022-09-09T23:53:57.713Z,99.90
2022-09-09T23:58:56.157Z,99.90
